createdAt,value
2023-02-26T00:04:18.691Z,101731.88
2023-02-26T00:09:40.429Z,101733.38
2023-02-26T00:15:03.057Z,101737.72
2023-02-26T00:20:26.187Z,101750.09
2023-02-26T00:25:48.172Z,101758.00
2023-02-26T00:31:10.552Z,101745.66
2023-02-26T00:36:45.732Z,101757.84
2023-02-26T00:42:07.837Z,101767.69
2023-02-26T00:47:44.366Z,101776.44
2023-02-26T00:53:27.249Z,101783.28
2023-02-26T00:58:49.001Z,101780.31
2023-02-26T01:04:12.246Z,101787.16
2023-02-26T01:09:36.556Z,101786.50
2023-02-26T01:14:58.659Z,101796.31
2023-02-26T01:20:27.234Z,101784.66
2023-02-26T01:25:52.043Z,101789.75
2023-02-26T01:31:50.391Z,101798.31
2023-02-26T01:37:36.493Z,101795.97
2023-02-26T01:43:04.926Z,101800.47
2023-02-26T01:48:49.779Z,101801.56
2023-02-26T01:54:12.368Z,101798.38
2023-02-26T01:59:37.152Z,101796.03
2023-02-26T02:05:07.305Z,101803.53
2023-02-26T02:10:29.908Z,101802.88
2023-02-26T02:16:00.230Z,101818.88
2023-02-26T02:21:51.289Z,101821.88
2023-02-26T02:27:28.521Z,101825.94
2023-02-26T02:33:18.997Z,101832.97
2023-02-26T02:38:49.847Z,101846.19
2023-02-26T02:44:16.496Z,101840.25
2023-02-26T02:49:45.073Z,101839.84
2023-02-26T02:55:13.443Z,101843.66
2023-02-26T03:00:45.882Z,101844.31
2023-02-26T03:06:08.068Z,101853.91
2023-02-26T03:11:30.272Z,101852.44
2023-02-26T03:17:01.260Z,101855.63
2023-02-26T03:22:28.914Z,101868.22
2023-02-26T03:28:06.218Z,101881.19
2023-02-26T03:33:38.606Z,101887.38
2023-02-26T03:39:11.171Z,101893.97
2023-02-26T03:44:37.702Z,101891.84
2023-02-26T03:50:05.271Z,101898.69
2023-02-26T03:55:42.495Z,101911.88
2023-02-26T04:01:12.610Z,101915.91
2023-02-26T04:06:34.975Z,101915.03
2023-02-26T04:11:58.585Z,101926.31
2023-02-26T04:17:20.243Z,101927.59
2023-02-26T04:22:41.978Z,101935.03
2023-02-26T04:28:04.515Z,101943.56
2023-02-26T04:33:27.602Z,101950.16
2023-02-26T04:38:49.764Z,101964.19
2023-02-26T04:44:11.521Z,101967.16
2023-02-26T04:49:33.427Z,101969.28
2023-02-26T04:54:55.111Z,101976.94
2023-02-26T05:00:17.779Z,101983.75
2023-02-26T05:05:39.466Z,101984.81
2023-02-26T05:11:01.211Z,101996.13
2023-02-26T05:16:23.087Z,101992.69
2023-02-26T05:21:44.963Z,102000.34
2023-02-26T05:27:09.630Z,102009.72
2023-02-26T05:32:31.594Z,102022.69
2023-02-26T05:37:53.313Z,102029.28
2023-02-26T05:43:15.216Z,102037.78
2023-02-26T05:48:37.045Z,102044.41
2023-02-26T05:53:58.907Z,102052.69
2023-02-26T05:59:20.703Z,102060.34
2023-02-26T06:04:42.514Z,102057.78
2023-02-26T06:10:05.883Z,102068.84
2023-02-26T06:15:27.723Z,102072.66
2023-02-26T06:20:49.468Z,102093.09
2023-02-26T06:26:11.283Z,102099.88
2023-02-26T06:31:33.330Z,102106.47
2023-02-26T06:36:55.075Z,102121.34
2023-02-26T06:42:18.480Z,102120.34
2023-02-26T06:47:41.742Z,102131.47
2023-02-26T06:53:04.097Z,102144.75
2023-02-26T06:58:26.062Z,102143.91
2023-02-26T07:03:48.014Z,102146.00
2023-02-26T07:09:09.826Z,102148.13
2023-02-26T07:14:31.772Z,102154.81
2023-02-26T07:19:53.715Z,102168.59
2023-02-26T07:25:15.580Z,102178.16
2023-02-26T07:30:37.386Z,102187.41
2023-02-26T07:35:59.659Z,102197.53
2023-02-26T07:41:21.390Z,102200.38
2023-02-26T07:46:43.132Z,102204.00
2023-02-26T07:52:05.775Z,102203.34
2023-02-26T07:57:27.534Z,102202.88
2023-02-26T08:02:49.558Z,102210.06
2023-02-26T08:08:11.452Z,102216.38
2023-02-26T08:13:34.198Z,102215.19
2023-02-26T08:18:55.946Z,102218.00
2023-02-26T08:24:17.786Z,102235.34
2023-02-26T08:29:39.663Z,102235.84
2023-02-26T08:35:01.808Z,102239.34
2023-02-26T08:40:23.876Z,102244.66
2023-02-26T08:45:46.758Z,102252.47
2023-02-26T08:51:08.763Z,102259.44
2023-02-26T08:56:31.948Z,102265.03
2023-02-26T09:01:53.814Z,102286.59
2023-02-26T09:07:15.785Z,102295.59
2023-02-26T09:12:37.964Z,102310.00
2023-02-26T09:18:00.214Z,102318.22
2023-02-26T09:23:21.995Z,102318.75
2023-02-26T09:28:43.963Z,102327.13
2023-02-26T09:34:06.054Z,102336.53
2023-02-26T09:39:27.864Z,102342.94
2023-02-26T09:44:51.552Z,102355.22
2023-02-26T09:50:22.822Z,102352.06
2023-02-26T09:55:50.829Z,102364.34
2023-02-26T10:01:38.350Z,102376.31
2023-02-26T10:07:32.552Z,102374.59
2023-02-26T10:12:55.122Z,102385.91
2023-02-26T10:18:24.041Z,102385.28
2023-02-26T10:23:59.343Z,102380.59
2023-02-26T10:29:28.683Z,102385.50
2023-02-26T10:35:01.306Z,102379.31
2023-02-26T10:40:50.013Z,102392.13
2023-02-26T10:46:53.453Z,102409.19
2023-02-26T10:52:18.463Z,102404.06
2023-02-26T10:57:50.420Z,102403.00
2023-02-26T11:03:19.642Z,102406.22
2023-02-26T11:08:45.432Z,102407.91
2023-02-26T11:14:08.695Z,102401.09
2023-02-26T11:19:45.846Z,102404.91
2023-02-26T11:25:13.315Z,102403.59
2023-02-26T11:30:44.372Z,102413.38
2023-02-26T11:36:16.158Z,102419.72
2023-02-26T11:41:39.840Z,102419.75
2023-02-26T11:47:06.938Z,102425.50
2023-02-26T11:52:43.322Z,102420.38
2023-02-26T11:58:18.082Z,102403.94
2023-02-26T12:03:44.389Z,102413.09
2023-02-26T12:09:12.675Z,102417.41
2023-02-26T12:14:50.410Z,102416.38
2023-02-26T12:20:27.586Z,102408.72
2023-02-26T12:26:04.218Z,102418.56
2023-02-26T12:31:32.104Z,102417.28
2023-02-26T12:37:21.460Z,102413.28
2023-02-26T12:43:07.191Z,102408.34
2023-02-26T12:48:35.287Z,102403.44
2023-02-26T12:54:30.127Z,102419.63
2023-02-26T13:00:13.750Z,102412.81
2023-02-26T13:06:20.048Z,102404.25
2023-02-26T13:11:54.921Z,102409.75
2023-02-26T13:17:34.960Z,102419.59
2023-02-26T13:23:52.230Z,102424.50
2023-02-26T13:29:21.885Z,102415.16
2023-02-26T13:35:08.232Z,102424.56
2023-02-26T13:40:52.650Z,102421.56
2023-02-26T13:46:17.556Z,102415.13
2023-02-26T13:51:42.899Z,102418.78
2023-02-26T14:02:43.554Z,102406.63
2023-02-26T14:08:25.989Z,102415.56
2023-02-26T14:14:10.861Z,102407.25
2023-02-26T14:19:42.348Z,102412.56
2023-02-26T14:25:18.254Z,102406.19
2023-02-26T14:30:47.610Z,102403.00
2023-02-26T14:36:18.637Z,102410.00
2023-02-26T14:41:41.766Z,102401.69
2023-02-26T14:47:04.376Z,102395.94
2023-02-26T14:53:03.267Z,102407.91
2023-02-26T14:58:38.361Z,102402.38
2023-02-26T15:04:09.035Z,102406.41
2023-02-26T15:09:36.539Z,102406.19
2023-02-26T15:15:27.062Z,102404.47
2023-02-26T15:21:36.564Z,102411.28
2023-02-26T15:27:02.534Z,102413.41
2023-02-26T15:32:26.028Z,102410.41
2023-02-26T15:37:57.902Z,102410.88
2023-02-26T15:43:26.790Z,102417.94
2023-02-26T15:48:48.978Z,102413.28
2023-02-26T15:54:17.880Z,102418.19
2023-02-26T15:59:51.066Z,102419.84
2023-02-26T16:05:14.928Z,102424.97
2023-02-26T16:10:43.056Z,102430.28
2023-02-26T16:16:12.410Z,102423.69
2023-02-26T16:21:38.626Z,102430.13
2023-02-26T16:27:07.148Z,102434.41
2023-02-26T16:32:32.034Z,102438.63
2023-02-26T16:37:55.778Z,102441.41
2023-02-26T16:43:23.525Z,102445.03
2023-02-26T16:48:56.312Z,102452.94
2023-02-26T16:54:27.549Z,102455.97
2023-02-26T17:00:01.569Z,102452.53
2023-02-26T17:05:26.346Z,102456.59
2023-02-26T17:10:55.302Z,102464.06
2023-02-26T17:16:17.087Z,102463.81
2023-02-26T17:21:54.198Z,102467.44
2023-02-26T17:27:44.600Z,102473.56
2023-02-26T17:33:08.045Z,102479.13
2023-02-26T17:38:30.147Z,102482.06
2023-02-26T17:43:52.046Z,102488.25
2023-02-26T17:49:14.399Z,102498.28
2023-02-26T17:54:36.098Z,102508.78
2023-02-26T17:59:57.810Z,102505.19
2023-02-26T18:05:20.416Z,102525.53
2023-02-26T18:10:42.117Z,102521.69
2023-02-26T18:16:05.231Z,102528.31
2023-02-26T18:21:28.580Z,102523.19
2023-02-26T18:26:51.675Z,102534.94
2023-02-26T18:32:15.205Z,102538.34
2023-02-26T18:37:36.944Z,102542.19
2023-02-26T18:42:58.835Z,102538.56
2023-02-26T18:48:21.376Z,102544.53
2023-02-26T18:53:43.118Z,102541.00
2023-02-26T18:59:06.011Z,102548.50
2023-02-26T19:04:28.592Z,102544.31
2023-02-26T19:09:50.418Z,102545.34
2023-02-26T19:15:13.049Z,102540.91
2023-02-26T19:20:36.146Z,102556.63
2023-02-26T19:25:58.323Z,102559.06
2023-02-26T19:31:20.118Z,102559.28
2023-02-26T19:36:48.273Z,102565.56
2023-02-26T19:42:11.143Z,102566.69
2023-02-26T19:47:32.850Z,102570.38
2023-02-26T19:52:55.225Z,102582.53
2023-02-26T19:58:19.696Z,102587.03
2023-02-26T20:03:41.545Z,102596.03
2023-02-26T20:09:04.728Z,102600.50
2023-02-26T20:14:26.471Z,102606.69
2023-02-26T20:19:48.544Z,102611.06
2023-02-26T20:25:10.456Z,102606.84
2023-02-26T20:30:32.980Z,102605.94
2023-02-26T20:35:55.026Z,102606.50
2023-02-26T20:41:17.104Z,102612.34
2023-02-26T20:46:39.125Z,102617.84
2023-02-26T20:52:00.965Z,102626.59
2023-02-26T20:57:22.709Z,102635.44
2023-02-26T21:02:45.325Z,102636.78
2023-02-26T21:08:07.675Z,102640.09
2023-02-26T21:13:29.540Z,102641.03
2023-02-26T21:18:51.355Z,102648.69
2023-02-26T21:24:13.111Z,102651.69
2023-02-26T21:29:34.844Z,102649.25
2023-02-26T21:34:59.071Z,102647.81
2023-02-26T21:40:21.200Z,102655.66
2023-02-26T21:45:44.622Z,102661.31
2023-02-26T21:51:06.942Z,102656.72
2023-02-26T21:56:28.919Z,102657.00
2023-02-26T22:01:52.151Z,102663.28
2023-02-26T22:07:14.025Z,102668.44
2023-02-26T22:12:35.964Z,102668.03
2023-02-26T22:17:57.817Z,102671.06
2023-02-26T22:23:20.398Z,102669.34
2023-02-26T22:28:42.062Z,102676.19
2023-02-26T22:34:03.896Z,102674.88
2023-02-26T22:39:25.595Z,102668.88
2023-02-26T22:44:47.333Z,102678.69
2023-02-26T22:50:09.754Z,102671.84
2023-02-26T22:55:31.538Z,102677.56
2023-02-26T23:01:05.522Z,102686.09
2023-02-26T23:06:27.335Z,102680.09
2023-02-26T23:11:49.209Z,102682.84
2023-02-26T23:17:11.732Z,102688.16
2023-02-26T23:22:33.529Z,102688.97
2023-02-26T23:27:55.448Z,102690.41
2023-02-26T23:33:17.176Z,102704.06
2023-02-26T23:38:40.002Z,102708.53
2023-02-26T23:44:01.796Z,102705.72
2023-02-26T23:49:23.744Z,102710.34
2023-02-26T23:54:45.387Z,102711.19
